sensor_id;sensor_type;location;lat;lon;timestamp;P1;durP1;ratioP1;P2;durP2;ratioP2
47299;SDS011;33036;51.320;17.234;2022-07-06T00:01:48;5.57;;;4.10;;
47299;SDS011;33036;51.320;17.234;2022-07-06T00:05:51;8.45;;;4.80;;
47299;SDS011;33036;51.320;17.234;2022-07-06T00:09:52;8.25;;;4.40;;
47299;SDS011;33036;51.320;17.234;2022-07-06T00:13:53;10.95;;;4.50;;
47299;SDS011;33036;51.320;17.234;2022-07-06T00:17:54;9.90;;;4.20;;
47299;SDS011;33036;51.320;17.234;2022-07-06T00:21:55;9.80;;;4.20;;
47299;SDS011;33036;51.320;17.234;2022-07-06T00:25:56;12.35;;;4.70;;
47299;SDS011;33036;51.320;17.234;2022-07-06T00:29:57;10.88;;;4.82;;
47299;SDS011;33036;51.320;17.234;2022-07-06T00:33:58;10.60;;;4.55;;
47299;SDS011;33036;51.320;17.234;2022-07-06T00:37:59;13.40;;;4.40;;
47299;SDS011;33036;51.320;17.234;2022-07-06T00:42:00;11.00;;;4.60;;
47299;SDS011;33036;51.320;17.234;2022-07-06T00:46:01;10.77;;;4.13;;
47299;SDS011;33036;51.320;17.234;2022-07-06T00:50:05;6.72;;;4.43;;
47299;SDS011;33036;51.320;17.234;2022-07-06T00:54:19;8.68;;;4.15;;
47299;SDS011;33036;51.320;17.234;2022-07-06T00:58:20;7.03;;;4.30;;
47299;SDS011;33036;51.320;17.234;2022-07-06T01:02:21;7.78;;;4.30;;
47299;SDS011;33036;51.320;17.234;2022-07-06T01:06:23;8.25;;;4.13;;
47299;SDS011;33036;51.320;17.234;2022-07-06T01:10:24;5.88;;;4.20;;
47299;SDS011;33036;51.320;17.234;2022-07-06T01:14:25;6.50;;;3.63;;
47299;SDS011;33036;51.320;17.234;2022-07-06T01:18:26;5.88;;;4.38;;
47299;SDS011;33036;51.320;17.234;2022-07-06T01:22:27;10.27;;;4.72;;
47299;SDS011;33036;51.320;17.234;2022-07-06T01:26:28;11.65;;;3.95;;
47299;SDS011;33036;51.320;17.234;2022-07-06T01:30:29;16.85;;;3.65;;
47299;SDS011;33036;51.320;17.234;2022-07-06T01:34:30;12.23;;;4.25;;
47299;SDS011;33036;51.320;17.234;2022-07-06T01:38:31;9.15;;;3.88;;
47299;SDS011;33036;51.320;17.234;2022-07-06T01:42:32;7.50;;;3.85;;
47299;SDS011;33036;51.320;17.234;2022-07-06T01:46:34;11.43;;;4.10;;
47299;SDS011;33036;51.320;17.234;2022-07-06T01:50:35;6.75;;;4.32;;
47299;SDS011;33036;51.320;17.234;2022-07-06T01:54:36;17.63;;;4.90;;
47299;SDS011;33036;51.320;17.234;2022-07-06T01:58:37;9.07;;;4.70;;
47299;SDS011;33036;51.320;17.234;2022-07-06T02:02:39;7.57;;;4.63;;
47299;SDS011;33036;51.320;17.234;2022-07-06T02:06:39;11.48;;;4.65;;
47299;SDS011;33036;51.320;17.234;2022-07-06T02:10:40;5.53;;;4.45;;
47299;SDS011;33036;51.320;17.234;2022-07-06T02:14:41;8.48;;;3.97;;
47299;SDS011;33036;51.320;17.234;2022-07-06T02:18:42;9.75;;;5.28;;
47299;SDS011;33036;51.320;17.234;2022-07-06T02:22:43;7.78;;;4.68;;
47299;SDS011;33036;51.320;17.234;2022-07-06T02:26:44;9.23;;;4.20;;
47299;SDS011;33036;51.320;17.234;2022-07-06T02:30:45;8.75;;;4.45;;
47299;SDS011;33036;51.320;17.234;2022-07-06T02:34:46;20.55;;;4.72;;
47299;SDS011;33036;51.320;17.234;2022-07-06T02:38:47;14.05;;;5.35;;
47299;SDS011;33036;51.320;17.234;2022-07-06T02:42:48;10.15;;;4.50;;
47299;SDS011;33036;51.320;17.234;2022-07-06T02:46:49;15.63;;;4.30;;
47299;SDS011;33036;51.320;17.234;2022-07-06T02:50:50;11.77;;;3.80;;
47299;SDS011;33036;51.320;17.234;2022-07-06T02:54:52;9.95;;;4.80;;
47299;SDS011;33036;51.320;17.234;2022-07-06T02:58:54;10.18;;;5.28;;
47299;SDS011;33036;51.320;17.234;2022-07-06T03:02:54;5.78;;;4.82;;
47299;SDS011;33036;51.320;17.234;2022-07-06T03:06:56;9.65;;;5.10;;
47299;SDS011;33036;51.320;17.234;2022-07-06T03:10:56;11.38;;;5.90;;
47299;SDS011;33036;51.320;17.234;2022-07-06T03:14:57;9.05;;;5.93;;
47299;SDS011;33036;51.320;17.234;2022-07-06T03:18:58;15.95;;;6.53;;
47299;SDS011;33036;51.320;17.234;2022-07-06T03:22:59;12.52;;;5.88;;
47299;SDS011;33036;51.320;17.234;2022-07-06T03:27:00;15.63;;;7.93;;
47299;SDS011;33036;51.320;17.234;2022-07-06T03:31:01;13.05;;;7.63;;
47299;SDS011;33036;51.320;17.234;2022-07-06T03:35:02;13.85;;;9.43;;
47299;SDS011;33036;51.320;17.234;2022-07-06T03:39:03;14.43;;;8.52;;
47299;SDS011;33036;51.320;17.234;2022-07-06T03:43:04;16.50;;;10.15;;
47299;SDS011;33036;51.320;17.234;2022-07-06T03:47:05;20.75;;;11.10;;
47299;SDS011;33036;51.320;17.234;2022-07-06T03:51:06;15.15;;;10.90;;
47299;SDS011;33036;51.320;17.234;2022-07-06T03:55:11;18.73;;;11.90;;
47299;SDS011;33036;51.320;17.234;2022-07-06T03:59:12;20.30;;;11.35;;
47299;SDS011;33036;51.320;17.234;2022-07-06T04:03:14;19.02;;;11.48;;
47299;SDS011;33036;51.320;17.234;2022-07-06T04:07:15;20.65;;;11.30;;
47299;SDS011;33036;51.320;17.234;2022-07-06T04:11:17;19.95;;;12.00;;
47299;SDS011;33036;51.320;17.234;2022-07-06T04:15:18;20.10;;;10.65;;
47299;SDS011;33036;51.320;17.234;2022-07-06T04:19:19;18.52;;;11.05;;
47299;SDS011;33036;51.320;17.234;2022-07-06T04:23:20;12.82;;;10.35;;
47299;SDS011;33036;51.320;17.234;2022-07-06T04:27:21;12.05;;;9.93;;
47299;SDS011;33036;51.320;17.234;2022-07-06T04:31:22;16.88;;;10.20;;
47299;SDS011;33036;51.320;17.234;2022-07-06T04:35:23;14.10;;;9.20;;
47299;SDS011;33036;51.320;17.234;2022-07-06T04:39:23;14.38;;;8.80;;
47299;SDS011;33036;51.320;17.234;2022-07-06T04:43:24;14.40;;;9.20;;
47299;SDS011;33036;51.320;17.234;2022-07-06T04:47:25;17.60;;;8.68;;
47299;SDS011;33036;51.320;17.234;2022-07-06T04:51:27;17.88;;;8.07;;
47299;SDS011;33036;51.320;17.234;2022-07-06T04:55:27;20.20;;;8.65;;
47299;SDS011;33036;51.320;17.234;2022-07-06T04:59:28;16.20;;;7.68;;
47299;SDS011;33036;51.320;17.234;2022-07-06T05:03:29;13.55;;;7.93;;
47299;SDS011;33036;51.320;17.234;2022-07-06T05:07:30;16.23;;;7.10;;
47299;SDS011;33036;51.320;17.234;2022-07-06T05:11:33;13.35;;;7.72;;
47299;SDS011;33036;51.320;17.234;2022-07-06T05:15:34;14.35;;;7.00;;
47299;SDS011;33036;51.320;17.234;2022-07-06T05:19:35;19.52;;;7.15;;
47299;SDS011;33036;51.320;17.234;2022-07-06T05:23:36;11.77;;;6.03;;
47299;SDS011;33036;51.320;17.234;2022-07-06T05:27:37;13.52;;;6.45;;
47299;SDS011;33036;51.320;17.234;2022-07-06T05:31:38;17.17;;;7.20;;
47299;SDS011;33036;51.320;17.234;2022-07-06T05:35:39;12.60;;;6.90;;
47299;SDS011;33036;51.320;17.234;2022-07-06T05:39:40;13.73;;;7.38;;
47299;SDS011;33036;51.320;17.234;2022-07-06T05:43:44;9.57;;;6.70;;
47299;SDS011;33036;51.320;17.234;2022-07-06T05:47:45;16.85;;;7.10;;
47299;SDS011;33036;51.320;17.234;2022-07-06T05:52:04;14.02;;;7.75;;
47299;SDS011;33036;51.320;17.234;2022-07-06T05:56:05;12.05;;;7.38;;
47299;SDS011;33036;51.320;17.234;2022-07-06T06:00:07;11.60;;;7.25;;
47299;SDS011;33036;51.320;17.234;2022-07-06T06:04:08;13.23;;;7.18;;
47299;SDS011;33036;51.320;17.234;2022-07-06T06:08:09;11.00;;;7.45;;
47299;SDS011;33036;51.320;17.234;2022-07-06T06:12:10;10.48;;;7.13;;
47299;SDS011;33036;51.320;17.234;2022-07-06T06:16:11;14.25;;;6.88;;
47299;SDS011;33036;51.320;17.234;2022-07-06T06:20:13;14.27;;;6.93;;
47299;SDS011;33036;51.320;17.234;2022-07-06T06:24:14;9.52;;;6.47;;
47299;SDS011;33036;51.320;17.234;2022-07-06T06:28:15;11.18;;;6.47;;
47299;SDS011;33036;51.320;17.234;2022-07-06T06:32:16;8.93;;;6.28;;
47299;SDS011;33036;51.320;17.234;2022-07-06T06:36:17;10.05;;;6.40;;
47299;SDS011;33036;51.320;17.234;2022-07-06T06:40:18;16.00;;;7.15;;
47299;SDS011;33036;51.320;17.234;2022-07-06T06:44:19;11.48;;;6.25;;
47299;SDS011;33036;51.320;17.234;2022-07-06T06:48:23;11.98;;;7.53;;
47299;SDS011;33036;51.320;17.234;2022-07-06T06:52:24;12.20;;;7.20;;
47299;SDS011;33036;51.320;17.234;2022-07-06T06:56:25;10.95;;;6.38;;
47299;SDS011;33036;51.320;17.234;2022-07-06T07:00:26;14.52;;;7.30;;
47299;SDS011;33036;51.320;17.234;2022-07-06T07:04:29;12.50;;;7.15;;
47299;SDS011;33036;51.320;17.234;2022-07-06T07:08:31;19.63;;;8.65;;
47299;SDS011;33036;51.320;17.234;2022-07-06T07:12:32;15.43;;;8.02;;
47299;SDS011;33036;51.320;17.234;2022-07-06T07:16:33;11.85;;;6.95;;
47299;SDS011;33036;51.320;17.234;2022-07-06T07:20:34;8.55;;;6.75;;
47299;SDS011;33036;51.320;17.234;2022-07-06T07:24:35;12.00;;;7.07;;
47299;SDS011;33036;51.320;17.234;2022-07-06T07:28:36;10.05;;;6.80;;
47299;SDS011;33036;51.320;17.234;2022-07-06T07:32:37;12.32;;;6.80;;
47299;SDS011;33036;51.320;17.234;2022-07-06T07:36:40;12.75;;;5.75;;
47299;SDS011;33036;51.320;17.234;2022-07-06T07:40:42;11.57;;;5.78;;
47299;SDS011;33036;51.320;17.234;2022-07-06T07:44:43;10.48;;;5.65;;
47299;SDS011;33036;51.320;17.234;2022-07-06T07:48:44;7.90;;;5.35;;
47299;SDS011;33036;51.320;17.234;2022-07-06T07:52:45;11.65;;;5.53;;
47299;SDS011;33036;51.320;17.234;2022-07-06T07:56:46;7.75;;;5.35;;
47299;SDS011;33036;51.320;17.234;2022-07-06T08:00:48;7.32;;;5.38;;
47299;SDS011;33036;51.320;17.234;2022-07-06T08:04:49;10.07;;;5.10;;
47299;SDS011;33036;51.320;17.234;2022-07-06T08:08:50;10.95;;;4.97;;
47299;SDS011;33036;51.320;17.234;2022-07-06T08:12:51;7.97;;;5.00;;
47299;SDS011;33036;51.320;17.234;2022-07-06T08:16:53;10.20;;;5.32;;
47299;SDS011;33036;51.320;17.234;2022-07-06T08:20:54;10.30;;;4.78;;
47299;SDS011;33036;51.320;17.234;2022-07-06T08:24:57;8.35;;;5.50;;
47299;SDS011;33036;51.320;17.234;2022-07-06T08:28:58;10.93;;;5.13;;
47299;SDS011;33036;51.320;17.234;2022-07-06T08:33:00;6.40;;;4.78;;
47299;SDS011;33036;51.320;17.234;2022-07-06T08:37:02;9.00;;;4.20;;
47299;SDS011;33036;51.320;17.234;2022-07-06T08:41:03;17.08;;;6.18;;
47299;SDS011;33036;51.320;17.234;2022-07-06T08:45:06;10.15;;;4.30;;
47299;SDS011;33036;51.320;17.234;2022-07-06T08:49:08;5.93;;;4.38;;
47299;SDS011;33036;51.320;17.234;2022-07-06T08:53:11;7.75;;;4.43;;
47299;SDS011;33036;51.320;17.234;2022-07-06T08:57:12;13.02;;;4.55;;
47299;SDS011;33036;51.320;17.234;2022-07-06T09:01:13;8.05;;;4.05;;
47299;SDS011;33036;51.320;17.234;2022-07-06T09:05:14;9.50;;;4.03;;
47299;SDS011;33036;51.320;17.234;2022-07-06T09:09:19;10.55;;;5.28;;
47299;SDS011;33036;51.320;17.234;2022-07-06T09:13:22;8.48;;;4.32;;
47299;SDS011;33036;51.320;17.234;2022-07-06T09:17:29;9.77;;;5.10;;
47299;SDS011;33036;51.320;17.234;2022-07-06T09:21:30;11.32;;;5.28;;
47299;SDS011;33036;51.320;17.234;2022-07-06T09:25:33;7.55;;;4.45;;
47299;SDS011;33036;51.320;17.234;2022-07-06T09:29:35;11.90;;;6.03;;
47299;SDS011;33036;51.320;17.234;2022-07-06T09:33:36;12.88;;;4.90;;
47299;SDS011;33036;51.320;17.234;2022-07-06T09:37:37;7.60;;;4.22;;
47299;SDS011;33036;51.320;17.234;2022-07-06T09:41:38;11.98;;;5.15;;
47299;SDS011;33036;51.320;17.234;2022-07-06T09:45:40;11.43;;;4.90;;
47299;SDS011;33036;51.320;17.234;2022-07-06T09:49:49;7.45;;;4.05;;
47299;SDS011;33036;51.320;17.234;2022-07-06T09:53:50;9.98;;;4.20;;
47299;SDS011;33036;51.320;17.234;2022-07-06T09:57:52;7.97;;;4.32;;
47299;SDS011;33036;51.320;17.234;2022-07-06T10:01:56;9.90;;;3.42;;
47299;SDS011;33036;51.320;17.234;2022-07-06T10:05:58;8.52;;;3.25;;
47299;SDS011;33036;51.320;17.234;2022-07-06T10:09:59;8.25;;;3.53;;
47299;SDS011;33036;51.320;17.234;2022-07-06T10:14:03;5.97;;;2.50;;
47299;SDS011;33036;51.320;17.234;2022-07-06T10:18:05;4.88;;;2.55;;
47299;SDS011;33036;51.320;17.234;2022-07-06T10:22:11;7.38;;;3.00;;
47299;SDS011;33036;51.320;17.234;2022-07-06T10:26:14;6.32;;;3.05;;
47299;SDS011;33036;51.320;17.234;2022-07-06T10:30:16;6.78;;;3.40;;
47299;SDS011;33036;51.320;17.234;2022-07-06T10:34:17;7.00;;;2.60;;
47299;SDS011;33036;51.320;17.234;2022-07-06T10:38:19;7.10;;;2.50;;
47299;SDS011;33036;51.320;17.234;2022-07-06T10:42:39;5.32;;;2.40;;
47299;SDS011;33036;51.320;17.234;2022-07-06T10:46:41;6.68;;;2.70;;
47299;SDS011;33036;51.320;17.234;2022-07-06T10:50:52;5.57;;;2.80;;
47299;SDS011;33036;51.320;17.234;2022-07-06T10:54:56;10.18;;;2.80;;
47299;SDS011;33036;51.320;17.234;2022-07-06T10:59:01;8.05;;;3.17;;
47299;SDS011;33036;51.320;17.234;2022-07-06T11:03:29;3.72;;;2.50;;
47299;SDS011;33036;51.320;17.234;2022-07-06T11:07:30;7.32;;;2.67;;
47299;SDS011;33036;51.320;17.234;2022-07-06T11:11:49;11.07;;;3.30;;
47299;SDS011;33036;51.320;17.234;2022-07-06T11:15:50;6.85;;;2.40;;
47299;SDS011;33036;51.320;17.234;2022-07-06T11:19:57;8.38;;;2.45;;
47299;SDS011;33036;51.320;17.234;2022-07-06T11:24:01;13.00;;;2.42;;
47299;SDS011;33036;51.320;17.234;2022-07-06T11:28:03;7.30;;;2.70;;
47299;SDS011;33036;51.320;17.234;2022-07-06T11:32:05;4.90;;;2.20;;
47299;SDS011;33036;51.320;17.234;2022-07-06T11:36:20;10.57;;;2.63;;
47299;SDS011;33036;51.320;17.234;2022-07-06T11:40:22;8.15;;;2.50;;
47299;SDS011;33036;51.320;17.234;2022-07-06T11:44:23;11.15;;;2.75;;
47299;SDS011;33036;51.320;17.234;2022-07-06T11:48:24;8.35;;;2.95;;
47299;SDS011;33036;51.320;17.234;2022-07-06T11:52:25;7.30;;;2.30;;
47299;SDS011;33036;51.320;17.234;2022-07-06T11:56:27;4.88;;;2.28;;
47299;SDS011;33036;51.320;17.234;2022-07-06T12:00:30;3.35;;;1.83;;
47299;SDS011;33036;51.320;17.234;2022-07-06T12:04:34;4.82;;;2.17;;
47299;SDS011;33036;51.320;17.234;2022-07-06T12:08:46;7.47;;;2.10;;
47299;SDS011;33036;51.320;17.234;2022-07-06T12:12:51;9.23;;;2.10;;
47299;SDS011;33036;51.320;17.234;2022-07-06T12:16:52;7.20;;;1.73;;
47299;SDS011;33036;51.320;17.234;2022-07-06T12:20:53;6.25;;;2.08;;
47299;SDS011;33036;51.320;17.234;2022-07-06T12:24:57;4.55;;;1.45;;
47299;SDS011;33036;51.320;17.234;2022-07-06T12:28:59;3.33;;;1.30;;
47299;SDS011;33036;51.320;17.234;2022-07-06T12:33:11;7.60;;;1.70;;
47299;SDS011;33036;51.320;17.234;2022-07-06T12:37:14;5.97;;;1.88;;
47299;SDS011;33036;51.320;17.234;2022-07-06T12:41:32;2.92;;;1.38;;
47299;SDS011;33036;51.320;17.234;2022-07-06T12:45:34;5.40;;;2.13;;
47299;SDS011;33036;51.320;17.234;2022-07-06T12:49:35;4.65;;;1.38;;
47299;SDS011;33036;51.320;17.234;2022-07-06T12:53:38;5.15;;;1.50;;
47299;SDS011;33036;51.320;17.234;2022-07-06T12:57:46;7.35;;;2.10;;
47299;SDS011;33036;51.320;17.234;2022-07-06T13:01:48;6.32;;;1.90;;
47299;SDS011;33036;51.320;17.234;2022-07-06T13:05:52;6.35;;;2.22;;
47299;SDS011;33036;51.320;17.234;2022-07-06T13:09:54;6.00;;;1.50;;
47299;SDS011;33036;51.320;17.234;2022-07-06T13:13:55;3.30;;;1.40;;
47299;SDS011;33036;51.320;17.234;2022-07-06T13:17:56;4.93;;;1.63;;
47299;SDS011;33036;51.320;17.234;2022-07-06T13:21:57;4.35;;;1.25;;
47299;SDS011;33036;51.320;17.234;2022-07-06T13:25:58;9.45;;;1.25;;
47299;SDS011;33036;51.320;17.234;2022-07-06T13:29:59;5.55;;;1.95;;
47299;SDS011;33036;51.320;17.234;2022-07-06T13:34:00;5.03;;;1.13;;
47299;SDS011;33036;51.320;17.234;2022-07-06T13:38:01;4.10;;;1.10;;
47299;SDS011;33036;51.320;17.234;2022-07-06T13:42:02;4.65;;;1.45;;
47299;SDS011;33036;51.320;17.234;2022-07-06T13:46:06;3.00;;;1.27;;
47299;SDS011;33036;51.320;17.234;2022-07-06T13:50:08;2.97;;;0.98;;
47299;SDS011;33036;51.320;17.234;2022-07-06T13:54:11;4.22;;;1.10;;
47299;SDS011;33036;51.320;17.234;2022-07-06T13:58:12;3.65;;;1.30;;
47299;SDS011;33036;51.320;17.234;2022-07-06T14:02:14;3.60;;;1.00;;
47299;SDS011;33036;51.320;17.234;2022-07-06T14:06:15;6.25;;;1.10;;
47299;SDS011;33036;51.320;17.234;2022-07-06T14:10:17;7.03;;;1.00;;
47299;SDS011;33036;51.320;17.234;2022-07-06T14:14:19;4.13;;;1.00;;
47299;SDS011;33036;51.320;17.234;2022-07-06T14:18:55;6.45;;;1.00;;
47299;SDS011;33036;51.320;17.234;2022-07-06T14:22:55;2.70;;;1.00;;
47299;SDS011;33036;51.320;17.234;2022-07-06T14:26:56;6.75;;;1.17;;
47299;SDS011;33036;51.320;17.234;2022-07-06T14:30:57;5.70;;;1.30;;
47299;SDS011;33036;51.320;17.234;2022-07-06T14:35:02;1.77;;;1.23;;
47299;SDS011;33036;51.320;17.234;2022-07-06T14:39:03;4.80;;;1.20;;
47299;SDS011;33036;51.320;17.234;2022-07-06T14:43:05;3.10;;;1.48;;
47299;SDS011;33036;51.320;17.234;2022-07-06T14:47:06;5.25;;;1.35;;
47299;SDS011;33036;51.320;17.234;2022-07-06T14:51:07;8.23;;;1.70;;
47299;SDS011;33036;51.320;17.234;2022-07-06T14:55:08;6.80;;;1.52;;
47299;SDS011;33036;51.320;17.234;2022-07-06T14:59:09;3.20;;;1.40;;
47299;SDS011;33036;51.320;17.234;2022-07-06T15:03:10;3.28;;;1.20;;
47299;SDS011;33036;51.320;17.234;2022-07-06T15:07:12;4.90;;;1.20;;
47299;SDS011;33036;51.320;17.234;2022-07-06T15:11:13;7.07;;;1.70;;
47299;SDS011;33036;51.320;17.234;2022-07-06T15:15:14;5.40;;;1.27;;
47299;SDS011;33036;51.320;17.234;2022-07-06T15:19:15;3.03;;;1.20;;
47299;SDS011;33036;51.320;17.234;2022-07-06T15:23:16;3.15;;;1.40;;
47299;SDS011;33036;51.320;17.234;2022-07-06T15:27:17;5.00;;;1.50;;
47299;SDS011;33036;51.320;17.234;2022-07-06T15:31:20;6.15;;;1.80;;
47299;SDS011;33036;51.320;17.234;2022-07-06T15:35:21;4.55;;;1.98;;
47299;SDS011;33036;51.320;17.234;2022-07-06T15:39:22;4.72;;;1.60;;
47299;SDS011;33036;51.320;17.234;2022-07-06T15:43:23;5.78;;;1.73;;
47299;SDS011;33036;51.320;17.234;2022-07-06T15:47:24;5.82;;;1.60;;
47299;SDS011;33036;51.320;17.234;2022-07-06T15:51:25;5.82;;;2.20;;
47299;SDS011;33036;51.320;17.234;2022-07-06T15:55:26;7.60;;;1.88;;
47299;SDS011;33036;51.320;17.234;2022-07-06T15:59:28;3.22;;;1.77;;
47299;SDS011;33036;51.320;17.234;2022-07-06T16:03:29;8.95;;;1.83;;
47299;SDS011;33036;51.320;17.234;2022-07-06T16:07:30;5.57;;;1.92;;
47299;SDS011;33036;51.320;17.234;2022-07-06T16:11:31;7.05;;;2.05;;
47299;SDS011;33036;51.320;17.234;2022-07-06T16:15:32;3.75;;;1.50;;
47299;SDS011;33036;51.320;17.234;2022-07-06T16:19:33;2.03;;;1.50;;
47299;SDS011;33036;51.320;17.234;2022-07-06T16:23:34;6.13;;;1.65;;
47299;SDS011;33036;51.320;17.234;2022-07-06T16:27:35;4.03;;;1.55;;
47299;SDS011;33036;51.320;17.234;2022-07-06T16:31:37;5.60;;;1.90;;
47299;SDS011;33036;51.320;17.234;2022-07-06T16:35:38;5.95;;;1.67;;
47299;SDS011;33036;51.320;17.234;2022-07-06T16:39:42;5.38;;;1.30;;
47299;SDS011;33036;51.320;17.234;2022-07-06T16:43:44;8.80;;;1.25;;
47299;SDS011;33036;51.320;17.234;2022-07-06T16:47:48;2.55;;;1.27;;
47299;SDS011;33036;51.320;17.234;2022-07-06T16:51:53;3.58;;;1.35;;
47299;SDS011;33036;51.320;17.234;2022-07-06T16:55:54;5.90;;;1.40;;
47299;SDS011;33036;51.320;17.234;2022-07-06T16:59:56;7.13;;;1.40;;
47299;SDS011;33036;51.320;17.234;2022-07-06T17:03:57;3.00;;;1.35;;
47299;SDS011;33036;51.320;17.234;2022-07-06T17:07:59;10.20;;;1.23;;
47299;SDS011;33036;51.320;17.234;2022-07-06T17:12:00;3.67;;;1.40;;
47299;SDS011;33036;51.320;17.234;2022-07-06T17:16:01;3.10;;;1.27;;
47299;SDS011;33036;51.320;17.234;2022-07-06T17:20:02;3.65;;;1.58;;
47299;SDS011;33036;51.320;17.234;2022-07-06T17:24:03;5.78;;;1.60;;
47299;SDS011;33036;51.320;17.234;2022-07-06T17:28:05;6.55;;;1.08;;
47299;SDS011;33036;51.320;17.234;2022-07-06T17:32:06;4.35;;;1.55;;
47299;SDS011;33036;51.320;17.234;2022-07-06T17:36:08;2.60;;;0.95;;
47299;SDS011;33036;51.320;17.234;2022-07-06T17:40:09;5.72;;;1.13;;
47299;SDS011;33036;51.320;17.234;2022-07-06T17:44:11;8.88;;;1.55;;
47299;SDS011;33036;51.320;17.234;2022-07-06T17:48:12;4.88;;;1.15;;
47299;SDS011;33036;51.320;17.234;2022-07-06T17:52:13;7.68;;;0.93;;
47299;SDS011;33036;51.320;17.234;2022-07-06T17:56:17;3.17;;;1.08;;
47299;SDS011;33036;51.320;17.234;2022-07-06T18:00:19;3.03;;;1.10;;
47299;SDS011;33036;51.320;17.234;2022-07-06T18:04:20;3.63;;;1.10;;
47299;SDS011;33036;51.320;17.234;2022-07-06T18:08:25;3.17;;;1.13;;
47299;SDS011;33036;51.320;17.234;2022-07-06T18:12:26;6.40;;;1.25;;
47299;SDS011;33036;51.320;17.234;2022-07-06T18:16:28;4.07;;;1.23;;
47299;SDS011;33036;51.320;17.234;2022-07-06T18:20:30;4.55;;;1.63;;
47299;SDS011;33036;51.320;17.234;2022-07-06T18:24:32;6.95;;;1.50;;
47299;SDS011;33036;51.320;17.234;2022-07-06T18:28:33;4.10;;;1.05;;
47299;SDS011;33036;51.320;17.234;2022-07-06T18:32:34;5.45;;;1.20;;
47299;SDS011;33036;51.320;17.234;2022-07-06T18:36:35;4.63;;;1.20;;
47299;SDS011;33036;51.320;17.234;2022-07-06T18:40:36;2.80;;;1.17;;
47299;SDS011;33036;51.320;17.234;2022-07-06T18:44:38;2.35;;;1.00;;
47299;SDS011;33036;51.320;17.234;2022-07-06T18:48:39;5.80;;;1.15;;
47299;SDS011;33036;51.320;17.234;2022-07-06T18:52:40;4.05;;;1.52;;
47299;SDS011;33036;51.320;17.234;2022-07-06T18:56:42;4.43;;;1.63;;
47299;SDS011;33036;51.320;17.234;2022-07-06T19:00:45;6.22;;;1.45;;
47299;SDS011;33036;51.320;17.234;2022-07-06T19:04:47;3.38;;;1.33;;
47299;SDS011;33036;51.320;17.234;2022-07-06T19:08:50;2.50;;;1.30;;
47299;SDS011;33036;51.320;17.234;2022-07-06T19:12:51;3.38;;;1.20;;
47299;SDS011;33036;51.320;17.234;2022-07-06T19:16:52;4.10;;;1.45;;
47299;SDS011;33036;51.320;17.234;2022-07-06T19:20:55;3.60;;;1.30;;
47299;SDS011;33036;51.320;17.234;2022-07-06T19:24:57;10.23;;;1.48;;
47299;SDS011;33036;51.320;17.234;2022-07-06T19:28:59;7.82;;;1.67;;
47299;SDS011;33036;51.320;17.234;2022-07-06T19:33:02;6.53;;;2.00;;
47299;SDS011;33036;51.320;17.234;2022-07-06T19:37:04;12.20;;;1.67;;
47299;SDS011;33036;51.320;17.234;2022-07-06T19:41:05;9.38;;;2.30;;
47299;SDS011;33036;51.320;17.234;2022-07-06T19:45:08;8.35;;;2.13;;
47299;SDS011;33036;51.320;17.234;2022-07-06T19:49:11;9.02;;;2.33;;
47299;SDS011;33036;51.320;17.234;2022-07-06T19:53:14;8.45;;;3.05;;
47299;SDS011;33036;51.320;17.234;2022-07-06T19:57:15;9.48;;;2.90;;
47299;SDS011;33036;51.320;17.234;2022-07-06T20:01:16;10.32;;;2.88;;
47299;SDS011;33036;51.320;17.234;2022-07-06T20:05:18;6.10;;;2.45;;
47299;SDS011;33036;51.320;17.234;2022-07-06T20:09:19;8.68;;;2.50;;
47299;SDS011;33036;51.320;17.234;2022-07-06T20:13:21;12.48;;;2.60;;
47299;SDS011;33036;51.320;17.234;2022-07-06T20:17:22;14.57;;;3.10;;
47299;SDS011;33036;51.320;17.234;2022-07-06T20:21:23;14.57;;;4.18;;
47299;SDS011;33036;51.320;17.234;2022-07-06T20:25:24;8.15;;;3.63;;
47299;SDS011;33036;51.320;17.234;2022-07-06T20:29:26;9.23;;;4.18;;
47299;SDS011;33036;51.320;17.234;2022-07-06T20:33:27;8.82;;;3.53;;
47299;SDS011;33036;51.320;17.234;2022-07-06T20:37:28;13.15;;;3.42;;
47299;SDS011;33036;51.320;17.234;2022-07-06T20:41:29;8.13;;;3.60;;
47299;SDS011;33036;51.320;17.234;2022-07-06T20:45:31;8.38;;;3.60;;
47299;SDS011;33036;51.320;17.234;2022-07-06T20:49:31;10.80;;;3.60;;
47299;SDS011;33036;51.320;17.234;2022-07-06T20:53:33;9.68;;;3.80;;
47299;SDS011;33036;51.320;17.234;2022-07-06T20:57:34;11.48;;;5.10;;
47299;SDS011;33036;51.320;17.234;2022-07-06T21:01:35;23.85;;;7.82;;
47299;SDS011;33036;51.320;17.234;2022-07-06T21:05:36;30.90;;;11.45;;
47299;SDS011;33036;51.320;17.234;2022-07-06T21:09:37;31.88;;;13.75;;
47299;SDS011;33036;51.320;17.234;2022-07-06T21:13:38;43.50;;;17.05;;
47299;SDS011;33036;51.320;17.234;2022-07-06T21:17:39;37.35;;;15.15;;
47299;SDS011;33036;51.320;17.234;2022-07-06T21:21:41;37.90;;;16.08;;
47299;SDS011;33036;51.320;17.234;2022-07-06T21:25:42;41.92;;;15.38;;
47299;SDS011;33036;51.320;17.234;2022-07-06T21:29:43;40.00;;;16.05;;
47299;SDS011;33036;51.320;17.234;2022-07-06T21:33:44;25.75;;;11.48;;
47299;SDS011;33036;51.320;17.234;2022-07-06T21:37:45;26.38;;;9.23;;
47299;SDS011;33036;51.320;17.234;2022-07-06T21:41:46;22.33;;;10.02;;
47299;SDS011;33036;51.320;17.234;2022-07-06T21:45:47;25.20;;;8.88;;
47299;SDS011;33036;51.320;17.234;2022-07-06T21:49:48;16.67;;;8.07;;
47299;SDS011;33036;51.320;17.234;2022-07-06T21:53:49;12.73;;;5.57;;
47299;SDS011;33036;51.320;17.234;2022-07-06T21:57:50;18.60;;;5.65;;
47299;SDS011;33036;51.320;17.234;2022-07-06T22:01:51;9.48;;;4.45;;
47299;SDS011;33036;51.320;17.234;2022-07-06T22:05:52;6.82;;;3.30;;
47299;SDS011;33036;51.320;17.234;2022-07-06T22:09:53;8.73;;;3.28;;
47299;SDS011;33036;51.320;17.234;2022-07-06T22:13:55;7.63;;;3.13;;
47299;SDS011;33036;51.320;17.234;2022-07-06T22:17:56;8.15;;;2.72;;
47299;SDS011;33036;51.320;17.234;2022-07-06T22:21:57;7.18;;;2.60;;
47299;SDS011;33036;51.320;17.234;2022-07-06T22:25:58;9.35;;;2.95;;
47299;SDS011;33036;51.320;17.234;2022-07-06T22:29:59;4.53;;;2.50;;
47299;SDS011;33036;51.320;17.234;2022-07-06T22:34:00;9.32;;;2.78;;
47299;SDS011;33036;51.320;17.234;2022-07-06T22:38:01;7.93;;;2.17;;
47299;SDS011;33036;51.320;17.234;2022-07-06T22:42:02;7.45;;;2.10;;
47299;SDS011;33036;51.320;17.234;2022-07-06T22:46:03;7.40;;;2.78;;
47299;SDS011;33036;51.320;17.234;2022-07-06T22:50:05;5.95;;;2.05;;
47299;SDS011;33036;51.320;17.234;2022-07-06T22:54:07;3.28;;;2.10;;
47299;SDS011;33036;51.320;17.234;2022-07-06T22:58:08;10.52;;;2.33;;
47299;SDS011;33036;51.320;17.234;2022-07-06T23:02:09;4.07;;;1.88;;
47299;SDS011;33036;51.320;17.234;2022-07-06T23:06:10;4.85;;;1.98;;
47299;SDS011;33036;51.320;17.234;2022-07-06T23:10:11;6.97;;;2.03;;
47299;SDS011;33036;51.320;17.234;2022-07-06T23:14:12;7.65;;;1.73;;
47299;SDS011;33036;51.320;17.234;2022-07-06T23:18:13;7.13;;;1.98;;
47299;SDS011;33036;51.320;17.234;2022-07-06T23:22:14;6.43;;;2.03;;
47299;SDS011;33036;51.320;17.234;2022-07-06T23:26:15;7.70;;;1.80;;
47299;SDS011;33036;51.320;17.234;2022-07-06T23:30:16;6.95;;;1.60;;
47299;SDS011;33036;51.320;17.234;2022-07-06T23:34:17;8.43;;;1.58;;
47299;SDS011;33036;51.320;17.234;2022-07-06T23:38:18;4.90;;;1.60;;
47299;SDS011;33036;51.320;17.234;2022-07-06T23:42:19;3.30;;;1.40;;
47299;SDS011;33036;51.320;17.234;2022-07-06T23:46:20;10.00;;;1.63;;